sensor_id;sensor_type;location;lat;lon;timestamp;P1;durP1;ratioP1;P2;durP2;ratioP2
19364;SDS011;9818;48.382;10.850;2023-05-20T00:00:13;2.70;;;2.50;;
19364;SDS011;9818;48.382;10.850;2023-05-20T00:02:42;2.70;;;2.50;;
19364;SDS011;9818;48.382;10.850;2023-05-20T00:05:13;2.83;;;2.60;;
19364;SDS011;9818;48.382;10.850;2023-05-20T00:07:41;2.63;;;2.43;;
19364;SDS011;9818;48.382;10.850;2023-05-20T00:10:10;2.60;;;2.40;;
19364;SDS011;9818;48.382;10.850;2023-05-20T00:12:39;2.70;;;2.50;;
19364;SDS011;9818;48.382;10.850;2023-05-20T00:15:08;3.20;;;2.90;;
19364;SDS011;9818;48.382;10.850;2023-05-20T00:17:37;2.83;;;2.63;;
19364;SDS011;9818;48.382;10.850;2023-05-20T00:20:06;2.70;;;2.50;;
19364;SDS011;9818;48.382;10.850;2023-05-20T00:22:38;2.93;;;2.50;;
19364;SDS011;9818;48.382;10.850;2023-05-20T00:25:07;3.20;;;2.90;;
19364;SDS011;9818;48.382;10.850;2023-05-20T00:27:38;2.60;;;2.40;;
19364;SDS011;9818;48.382;10.850;2023-05-20T00:30:08;3.57;;;2.90;;
19364;SDS011;9818;48.382;10.850;2023-05-20T00:32:37;2.80;;;2.60;;
19364;SDS011;9818;48.382;10.850;2023-05-20T00:35:06;3.17;;;2.87;;
19364;SDS011;9818;48.382;10.850;2023-05-20T00:37:38;2.60;;;2.40;;
19364;SDS011;9818;48.382;10.850;2023-05-20T00:40:07;2.80;;;2.60;;
19364;SDS011;9818;48.382;10.850;2023-05-20T00:42:36;2.87;;;2.67;;
19364;SDS011;9818;48.382;10.850;2023-05-20T00:45:05;3.47;;;3.17;;
19364;SDS011;9818;48.382;10.850;2023-05-20T00:47:35;2.90;;;2.60;;
19364;SDS011;9818;48.382;10.850;2023-05-20T00:50:06;3.33;;;2.90;;
19364;SDS011;9818;48.382;10.850;2023-05-20T00:52:38;2.90;;;2.70;;
19364;SDS011;9818;48.382;10.850;2023-05-20T00:55:09;3.30;;;3.00;;
19364;SDS011;9818;48.382;10.850;2023-05-20T00:57:38;2.67;;;2.47;;
19364;SDS011;9818;48.382;10.850;2023-05-20T01:00:08;3.20;;;2.90;;
19364;SDS011;9818;48.382;10.850;2023-05-20T01:02:38;3.70;;;2.80;;
19364;SDS011;9818;48.382;10.850;2023-05-20T01:05:06;2.97;;;2.67;;
19364;SDS011;9818;48.382;10.850;2023-05-20T01:07:38;2.77;;;2.50;;
19364;SDS011;9818;48.382;10.850;2023-05-20T01:10:07;3.03;;;2.67;;
19364;SDS011;9818;48.382;10.850;2023-05-20T01:12:38;3.00;;;2.67;;
19364;SDS011;9818;48.382;10.850;2023-05-20T01:15:10;2.80;;;2.60;;
19364;SDS011;9818;48.382;10.850;2023-05-20T01:17:42;2.63;;;2.43;;
19364;SDS011;9818;48.382;10.850;2023-05-20T01:20:13;2.70;;;2.40;;
19364;SDS011;9818;48.382;10.850;2023-05-20T01:22:48;3.30;;;2.60;;
19364;SDS011;9818;48.382;10.850;2023-05-20T01:25:20;2.67;;;2.47;;
19364;SDS011;9818;48.382;10.850;2023-05-20T01:27:50;2.43;;;2.23;;
19364;SDS011;9818;48.382;10.850;2023-05-20T01:30:21;3.10;;;2.80;;
19364;SDS011;9818;48.382;10.850;2023-05-20T01:32:54;3.10;;;2.80;;
19364;SDS011;9818;48.382;10.850;2023-05-20T01:35:28;3.33;;;3.03;;
19364;SDS011;9818;48.382;10.850;2023-05-20T01:37:59;2.73;;;2.50;;
19364;SDS011;9818;48.382;10.850;2023-05-20T01:40:30;2.73;;;2.50;;
19364;SDS011;9818;48.382;10.850;2023-05-20T01:43:00;2.73;;;2.50;;
19364;SDS011;9818;48.382;10.850;2023-05-20T01:45:30;2.93;;;2.57;;
19364;SDS011;9818;48.382;10.850;2023-05-20T01:47:59;2.93;;;2.67;;
19364;SDS011;9818;48.382;10.850;2023-05-20T01:50:28;2.70;;;2.50;;
19364;SDS011;9818;48.382;10.850;2023-05-20T01:52:59;2.60;;;2.40;;
19364;SDS011;9818;48.382;10.850;2023-05-20T01:55:28;3.10;;;2.80;;
19364;SDS011;9818;48.382;10.850;2023-05-20T01:57:56;2.70;;;2.40;;
19364;SDS011;9818;48.382;10.850;2023-05-20T02:00:25;2.60;;;2.40;;
19364;SDS011;9818;48.382;10.850;2023-05-20T02:02:54;2.97;;;2.67;;
19364;SDS011;9818;48.382;10.850;2023-05-20T02:05:22;3.17;;;2.87;;
19364;SDS011;9818;48.382;10.850;2023-05-20T02:07:51;3.13;;;2.83;;
19364;SDS011;9818;48.382;10.850;2023-05-20T02:10:22;2.70;;;2.50;;
19364;SDS011;9818;48.382;10.850;2023-05-20T02:12:51;2.60;;;2.40;;
19364;SDS011;9818;48.382;10.850;2023-05-20T02:15:19;2.63;;;2.43;;
19364;SDS011;9818;48.382;10.850;2023-05-20T02:17:48;2.90;;;2.70;;
19364;SDS011;9818;48.382;10.850;2023-05-20T02:20:17;2.90;;;2.60;;
19364;SDS011;9818;48.382;10.850;2023-05-20T02:22:46;3.17;;;2.70;;
19364;SDS011;9818;48.382;10.850;2023-05-20T02:25:14;3.20;;;2.63;;
19364;SDS011;9818;48.382;10.850;2023-05-20T02:27:46;3.10;;;2.80;;
19364;SDS011;9818;48.382;10.850;2023-05-20T02:30:15;2.77;;;2.50;;
19364;SDS011;9818;48.382;10.850;2023-05-20T02:32:44;2.90;;;2.60;;
19364;SDS011;9818;48.382;10.850;2023-05-20T02:35:12;3.57;;;2.80;;
19364;SDS011;9818;48.382;10.850;2023-05-20T02:37:41;2.80;;;2.60;;
19364;SDS011;9818;48.382;10.850;2023-05-20T02:40:10;3.23;;;2.93;;
19364;SDS011;9818;48.382;10.850;2023-05-20T02:42:39;2.87;;;2.67;;
19364;SDS011;9818;48.382;10.850;2023-05-20T02:45:11;2.97;;;2.67;;
19364;SDS011;9818;48.382;10.850;2023-05-20T02:47:39;2.60;;;2.40;;
19364;SDS011;9818;48.382;10.850;2023-05-20T02:50:08;2.60;;;2.40;;
19364;SDS011;9818;48.382;10.850;2023-05-20T02:52:37;2.70;;;2.50;;
19364;SDS011;9818;48.382;10.850;2023-05-20T02:55:07;2.57;;;2.37;;
19364;SDS011;9818;48.382;10.850;2023-05-20T02:57:36;3.27;;;2.50;;
19364;SDS011;9818;48.382;10.850;2023-05-20T03:00:05;2.97;;;2.63;;
19364;SDS011;9818;48.382;10.850;2023-05-20T03:02:39;3.07;;;2.83;;
19364;SDS011;9818;48.382;10.850;2023-05-20T03:05:08;3.00;;;2.70;;
19364;SDS011;9818;48.382;10.850;2023-05-20T03:07:37;3.03;;;2.40;;
19364;SDS011;9818;48.382;10.850;2023-05-20T03:10:06;2.40;;;2.20;;
19364;SDS011;9818;48.382;10.850;2023-05-20T03:12:36;2.80;;;2.60;;
19364;SDS011;9818;48.382;10.850;2023-05-20T03:15:05;3.00;;;2.70;;
19364;SDS011;9818;48.382;10.850;2023-05-20T03:17:36;3.23;;;2.90;;
19364;SDS011;9818;48.382;10.850;2023-05-20T03:20:08;2.33;;;2.20;;
19364;SDS011;9818;48.382;10.850;2023-05-20T03:22:37;3.07;;;2.77;;
19364;SDS011;9818;48.382;10.850;2023-05-20T03:25:06;2.83;;;2.60;;
19364;SDS011;9818;48.382;10.850;2023-05-20T03:27:36;2.70;;;2.50;;
19364;SDS011;9818;48.382;10.850;2023-05-20T03:30:07;3.00;;;2.70;;
19364;SDS011;9818;48.382;10.850;2023-05-20T03:32:36;3.00;;;2.70;;
19364;SDS011;9818;48.382;10.850;2023-05-20T03:35:08;3.20;;;2.90;;
19364;SDS011;9818;48.382;10.850;2023-05-20T03:37:40;2.70;;;2.50;;
19364;SDS011;9818;48.382;10.850;2023-05-20T03:40:11;2.90;;;2.63;;
19364;SDS011;9818;48.382;10.850;2023-05-20T03:42:41;2.97;;;2.70;;
19364;SDS011;9818;48.382;10.850;2023-05-20T03:45:10;2.83;;;2.63;;
19364;SDS011;9818;48.382;10.850;2023-05-20T03:47:41;3.13;;;2.83;;
19364;SDS011;9818;48.382;10.850;2023-05-20T03:50:11;2.80;;;2.60;;
19364;SDS011;9818;48.382;10.850;2023-05-20T03:52:40;2.83;;;2.63;;
19364;SDS011;9818;48.382;10.850;2023-05-20T03:55:09;2.67;;;2.47;;
19364;SDS011;9818;48.382;10.850;2023-05-20T03:57:39;2.80;;;2.60;;
19364;SDS011;9818;48.382;10.850;2023-05-20T04:00:11;2.70;;;2.50;;
19364;SDS011;9818;48.382;10.850;2023-05-20T04:02:43;3.20;;;2.90;;
19364;SDS011;9818;48.382;10.850;2023-05-20T04:05:13;2.60;;;2.40;;
19364;SDS011;9818;48.382;10.850;2023-05-20T04:07:44;2.73;;;2.53;;
19364;SDS011;9818;48.382;10.850;2023-05-20T04:10:17;3.40;;;3.10;;
19364;SDS011;9818;48.382;10.850;2023-05-20T04:12:47;2.97;;;2.67;;
19364;SDS011;9818;48.382;10.850;2023-05-20T04:15:18;2.93;;;2.67;;
19364;SDS011;9818;48.382;10.850;2023-05-20T04:17:50;2.90;;;2.70;;
19364;SDS011;9818;48.382;10.850;2023-05-20T04:20:20;2.97;;;2.77;;
19364;SDS011;9818;48.382;10.850;2023-05-20T04:22:51;2.90;;;2.60;;
19364;SDS011;9818;48.382;10.850;2023-05-20T04:25:22;3.30;;;3.00;;
19364;SDS011;9818;48.382;10.850;2023-05-20T04:27:51;3.10;;;2.80;;
19364;SDS011;9818;48.382;10.850;2023-05-20T04:30:26;3.07;;;2.77;;
19364;SDS011;9818;48.382;10.850;2023-05-20T04:33:00;2.90;;;2.70;;
19364;SDS011;9818;48.382;10.850;2023-05-20T04:35:32;2.80;;;2.60;;
19364;SDS011;9818;48.382;10.850;2023-05-20T04:38:01;2.90;;;2.70;;
19364;SDS011;9818;48.382;10.850;2023-05-20T04:40:30;3.17;;;2.87;;
19364;SDS011;9818;48.382;10.850;2023-05-20T04:42:59;3.17;;;2.87;;
19364;SDS011;9818;48.382;10.850;2023-05-20T04:45:28;3.27;;;2.90;;
19364;SDS011;9818;48.382;10.850;2023-05-20T04:48:02;3.13;;;2.83;;
19364;SDS011;9818;48.382;10.850;2023-05-20T04:50:33;3.00;;;2.73;;
19364;SDS011;9818;48.382;10.850;2023-05-20T04:53:05;3.80;;;2.93;;
19364;SDS011;9818;48.382;10.850;2023-05-20T04:55:37;3.30;;;3.00;;
19364;SDS011;9818;48.382;10.850;2023-05-20T04:58:05;3.20;;;2.90;;
19364;SDS011;9818;48.382;10.850;2023-05-20T05:00:39;3.47;;;3.17;;
19364;SDS011;9818;48.382;10.850;2023-05-20T05:03:12;2.90;;;2.60;;
19364;SDS011;9818;48.382;10.850;2023-05-20T05:05:40;3.30;;;3.00;;
19364;SDS011;9818;48.382;10.850;2023-05-20T05:08:09;3.20;;;2.90;;
19364;SDS011;9818;48.382;10.850;2023-05-20T05:10:38;3.17;;;2.87;;
19364;SDS011;9818;48.382;10.850;2023-05-20T05:13:07;3.27;;;2.97;;
19364;SDS011;9818;48.382;10.850;2023-05-20T05:15:36;3.30;;;3.00;;
19364;SDS011;9818;48.382;10.850;2023-05-20T05:18:04;3.33;;;3.03;;
19364;SDS011;9818;48.382;10.850;2023-05-20T05:20:36;3.03;;;2.80;;
19364;SDS011;9818;48.382;10.850;2023-05-20T05:23:04;3.47;;;2.70;;
19364;SDS011;9818;48.382;10.850;2023-05-20T05:25:33;2.93;;;2.73;;
19364;SDS011;9818;48.382;10.850;2023-05-20T05:28:02;3.30;;;3.00;;
19364;SDS011;9818;48.382;10.850;2023-05-20T05:30:30;3.17;;;2.97;;
19364;SDS011;9818;48.382;10.850;2023-05-20T05:32:59;3.40;;;3.10;;
19364;SDS011;9818;48.382;10.850;2023-05-20T05:35:28;3.10;;;2.90;;
19364;SDS011;9818;48.382;10.850;2023-05-20T05:37:59;2.90;;;2.67;;
19364;SDS011;9818;48.382;10.850;2023-05-20T05:40:28;3.57;;;3.13;;
19364;SDS011;9818;48.382;10.850;2023-05-20T05:42:56;3.23;;;2.93;;
19364;SDS011;9818;48.382;10.850;2023-05-20T05:45:25;3.57;;;3.27;;
19364;SDS011;9818;48.382;10.850;2023-05-20T05:47:54;3.30;;;3.00;;
19364;SDS011;9818;48.382;10.850;2023-05-20T05:50:22;2.90;;;2.70;;
19364;SDS011;9818;48.382;10.850;2023-05-20T05:52:51;3.33;;;2.90;;
19364;SDS011;9818;48.382;10.850;2023-05-20T05:55:22;3.20;;;2.90;;
19364;SDS011;9818;48.382;10.850;2023-05-20T05:57:51;4.63;;;3.27;;
19364;SDS011;9818;48.382;10.850;2023-05-20T06:00:19;3.67;;;3.23;;
19364;SDS011;9818;48.382;10.850;2023-05-20T06:02:48;4.03;;;3.63;;
19364;SDS011;9818;48.382;10.850;2023-05-20T06:05:17;3.37;;;3.07;;
19364;SDS011;9818;48.382;10.850;2023-05-20T06:07:46;3.70;;;3.40;;
19364;SDS011;9818;48.382;10.850;2023-05-20T06:10:14;3.80;;;3.50;;
19364;SDS011;9818;48.382;10.850;2023-05-20T06:12:46;3.97;;;3.60;;
19364;SDS011;9818;48.382;10.850;2023-05-20T06:15:14;3.90;;;3.50;;
19364;SDS011;9818;48.382;10.850;2023-05-20T06:17:43;3.57;;;3.27;;
19364;SDS011;9818;48.382;10.850;2023-05-20T06:20:12;4.40;;;4.00;;
19364;SDS011;9818;48.382;10.850;2023-05-20T06:22:40;4.40;;;4.00;;
19364;SDS011;9818;48.382;10.850;2023-05-20T06:25:09;3.67;;;3.37;;
19364;SDS011;9818;48.382;10.850;2023-05-20T06:27:38;3.90;;;3.47;;
19364;SDS011;9818;48.382;10.850;2023-05-20T06:30:10;4.57;;;4.07;;
19364;SDS011;9818;48.382;10.850;2023-05-20T06:32:39;4.33;;;3.93;;
19364;SDS011;9818;48.382;10.850;2023-05-20T06:35:08;4.67;;;3.80;;
19364;SDS011;9818;48.382;10.850;2023-05-20T06:37:37;4.20;;;3.80;;
19364;SDS011;9818;48.382;10.850;2023-05-20T06:40:07;4.23;;;3.83;;
19364;SDS011;9818;48.382;10.850;2023-05-20T06:42:36;4.10;;;3.70;;
19364;SDS011;9818;48.382;10.850;2023-05-20T06:45:05;3.67;;;3.37;;
19364;SDS011;9818;48.382;10.850;2023-05-20T06:47:37;4.37;;;3.97;;
19364;SDS011;9818;48.382;10.850;2023-05-20T06:50:06;4.47;;;4.07;;
19364;SDS011;9818;48.382;10.850;2023-05-20T06:52:35;3.63;;;3.33;;
19364;SDS011;9818;48.382;10.850;2023-05-20T06:55:04;4.03;;;3.67;;
19364;SDS011;9818;48.382;10.850;2023-05-20T06:57:33;3.63;;;3.33;;
19364;SDS011;9818;48.382;10.850;2023-05-20T07:00:02;3.50;;;3.20;;
19364;SDS011;9818;48.382;10.850;2023-05-20T07:02:32;4.20;;;3.80;;
19364;SDS011;9818;48.382;10.850;2023-05-20T07:05:03;5.47;;;4.13;;
19364;SDS011;9818;48.382;10.850;2023-05-20T07:07:32;3.83;;;3.43;;
19364;SDS011;9818;48.382;10.850;2023-05-20T07:10:01;4.23;;;3.70;;
19364;SDS011;9818;48.382;10.850;2023-05-20T07:12:30;4.83;;;3.80;;
19364;SDS011;9818;48.382;10.850;2023-05-20T07:14:59;4.07;;;3.67;;
19364;SDS011;9818;48.382;10.850;2023-05-20T07:17:28;3.80;;;3.50;;
19364;SDS011;9818;48.382;10.850;2023-05-20T07:19:57;4.50;;;3.90;;
19364;SDS011;9818;48.382;10.850;2023-05-20T07:22:28;3.93;;;3.60;;
19364;SDS011;9818;48.382;10.850;2023-05-20T07:24:57;3.97;;;3.53;;
19364;SDS011;9818;48.382;10.850;2023-05-20T07:27:26;4.50;;;4.10;;
19364;SDS011;9818;48.382;10.850;2023-05-20T07:29:54;4.13;;;3.73;;
19364;SDS011;9818;48.382;10.850;2023-05-20T07:32:23;4.17;;;3.77;;
19364;SDS011;9818;48.382;10.850;2023-05-20T07:34:52;4.37;;;3.97;;
19364;SDS011;9818;48.382;10.850;2023-05-20T07:37:20;3.70;;;3.40;;
19364;SDS011;9818;48.382;10.850;2023-05-20T07:39:52;4.13;;;3.63;;
19364;SDS011;9818;48.382;10.850;2023-05-20T07:42:20;3.97;;;3.67;;
19364;SDS011;9818;48.382;10.850;2023-05-20T07:44:49;3.97;;;3.60;;
19364;SDS011;9818;48.382;10.850;2023-05-20T07:47:18;4.13;;;3.73;;
19364;SDS011;9818;48.382;10.850;2023-05-20T07:49:46;3.93;;;3.63;;
19364;SDS011;9818;48.382;10.850;2023-05-20T07:52:15;4.10;;;3.70;;
19364;SDS011;9818;48.382;10.850;2023-05-20T07:54:44;4.03;;;3.63;;
19364;SDS011;9818;48.382;10.850;2023-05-20T07:57:15;4.67;;;4.17;;
19364;SDS011;9818;48.382;10.850;2023-05-20T07:59:43;4.37;;;3.97;;
19364;SDS011;9818;48.382;10.850;2023-05-20T08:02:12;4.47;;;4.07;;
19364;SDS011;9818;48.382;10.850;2023-05-20T08:04:41;4.90;;;3.93;;
19364;SDS011;9818;48.382;10.850;2023-05-20T08:07:10;4.37;;;3.97;;
19364;SDS011;9818;48.382;10.850;2023-05-20T08:09:39;4.50;;;4.10;;
19364;SDS011;9818;48.382;10.850;2023-05-20T08:12:07;4.10;;;3.70;;
19364;SDS011;9818;48.382;10.850;2023-05-20T08:14:38;3.97;;;3.67;;
19364;SDS011;9818;48.382;10.850;2023-05-20T08:17:08;3.80;;;3.50;;
19364;SDS011;9818;48.382;10.850;2023-05-20T08:19:36;4.07;;;3.73;;
19364;SDS011;9818;48.382;10.850;2023-05-20T08:22:05;3.93;;;3.50;;
19364;SDS011;9818;48.382;10.850;2023-05-20T08:24:34;3.53;;;3.23;;
19364;SDS011;9818;48.382;10.850;2023-05-20T08:27:03;4.13;;;3.73;;
19364;SDS011;9818;48.382;10.850;2023-05-20T08:29:31;4.10;;;3.60;;
19364;SDS011;9818;48.382;10.850;2023-05-20T08:32:03;4.50;;;4.10;;
19364;SDS011;9818;48.382;10.850;2023-05-20T08:34:32;4.10;;;3.77;;
19364;SDS011;9818;48.382;10.850;2023-05-20T08:37:01;3.60;;;3.30;;
19364;SDS011;9818;48.382;10.850;2023-05-20T08:39:29;4.87;;;3.90;;
19364;SDS011;9818;48.382;10.850;2023-05-20T08:41:58;3.90;;;3.60;;
19364;SDS011;9818;48.382;10.850;2023-05-20T08:44:27;4.47;;;3.47;;
19364;SDS011;9818;48.382;10.850;2023-05-20T08:46:56;3.80;;;3.50;;
19364;SDS011;9818;48.382;10.850;2023-05-20T08:49:28;4.57;;;3.60;;
19364;SDS011;9818;48.382;10.850;2023-05-20T08:51:57;3.57;;;3.27;;
19364;SDS011;9818;48.382;10.850;2023-05-20T08:54:37;3.70;;;3.40;;
19364;SDS011;9818;48.382;10.850;2023-05-20T08:57:11;3.57;;;3.23;;
19364;SDS011;9818;48.382;10.850;2023-05-20T08:59:40;3.80;;;3.40;;
19364;SDS011;9818;48.382;10.850;2023-05-20T09:02:10;4.00;;;3.60;;
19364;SDS011;9818;48.382;10.850;2023-05-20T09:04:42;5.10;;;3.77;;
19364;SDS011;9818;48.382;10.850;2023-05-20T09:07:11;4.17;;;3.73;;
19364;SDS011;9818;48.382;10.850;2023-05-20T09:09:40;4.03;;;3.57;;
19364;SDS011;9818;48.382;10.850;2023-05-20T09:12:08;3.77;;;3.47;;
19364;SDS011;9818;48.382;10.850;2023-05-20T09:14:37;3.90;;;3.60;;
19364;SDS011;9818;48.382;10.850;2023-05-20T09:17:05;3.43;;;3.13;;
19364;SDS011;9818;48.382;10.850;2023-05-20T09:19:34;3.87;;;3.50;;
19364;SDS011;9818;48.382;10.850;2023-05-20T09:22:06;3.63;;;3.33;;
19364;SDS011;9818;48.382;10.850;2023-05-20T09:24:35;3.57;;;3.27;;
19364;SDS011;9818;48.382;10.850;2023-05-20T09:27:03;3.60;;;3.30;;
19364;SDS011;9818;48.382;10.850;2023-05-20T09:29:32;3.90;;;3.60;;
19364;SDS011;9818;48.382;10.850;2023-05-20T09:32:01;3.63;;;3.33;;
19364;SDS011;9818;48.382;10.850;2023-05-20T09:34:31;4.93;;;3.90;;
19364;SDS011;9818;48.382;10.850;2023-05-20T09:37:00;3.80;;;3.50;;
19364;SDS011;9818;48.382;10.850;2023-05-20T09:39:32;4.47;;;3.30;;
19364;SDS011;9818;48.382;10.850;2023-05-20T09:42:08;3.70;;;3.40;;
19364;SDS011;9818;48.382;10.850;2023-05-20T09:44:42;4.07;;;3.20;;
19364;SDS011;9818;48.382;10.850;2023-05-20T09:47:12;3.93;;;3.63;;
19364;SDS011;9818;48.382;10.850;2023-05-20T09:49:42;4.03;;;3.63;;
19364;SDS011;9818;48.382;10.850;2023-05-20T09:52:12;3.93;;;3.53;;
19364;SDS011;9818;48.382;10.850;2023-05-20T09:54:45;5.33;;;3.77;;
19364;SDS011;9818;48.382;10.850;2023-05-20T09:57:16;3.40;;;3.10;;
19364;SDS011;9818;48.382;10.850;2023-05-20T09:59:45;4.50;;;3.10;;
19364;SDS011;9818;48.382;10.850;2023-05-20T10:02:14;3.60;;;3.30;;
19364;SDS011;9818;48.382;10.850;2023-05-20T10:04:44;3.47;;;3.17;;
19364;SDS011;9818;48.382;10.850;2023-05-20T10:07:30;3.80;;;3.40;;
19364;SDS011;9818;48.382;10.850;2023-05-20T10:10:24;3.87;;;3.47;;
19364;SDS011;9818;48.382;10.850;2023-05-20T10:12:58;3.57;;;3.27;;
19364;SDS011;9818;48.382;10.850;2023-05-20T10:15:37;3.33;;;3.03;;
19364;SDS011;9818;48.382;10.850;2023-05-20T10:18:17;3.83;;;3.50;;
19364;SDS011;9818;48.382;10.850;2023-05-20T10:20:54;3.90;;;3.50;;
19364;SDS011;9818;48.382;10.850;2023-05-20T10:23:23;3.97;;;3.57;;
19364;SDS011;9818;48.382;10.850;2023-05-20T10:26:04;3.70;;;3.40;;
19364;SDS011;9818;48.382;10.850;2023-05-20T10:28:34;3.30;;;3.00;;
19364;SDS011;9818;48.382;10.850;2023-05-20T10:31:13;3.47;;;3.17;;
19364;SDS011;9818;48.382;10.850;2023-05-20T10:33:43;3.63;;;3.33;;
19364;SDS011;9818;48.382;10.850;2023-05-20T10:36:21;3.53;;;3.23;;
19364;SDS011;9818;48.382;10.850;2023-05-20T10:38:52;3.60;;;3.30;;
19364;SDS011;9818;48.382;10.850;2023-05-20T10:41:25;3.80;;;3.50;;
19364;SDS011;9818;48.382;10.850;2023-05-20T10:44:01;4.00;;;3.60;;
19364;SDS011;9818;48.382;10.850;2023-05-20T10:46:31;3.70;;;3.40;;
19364;SDS011;9818;48.382;10.850;2023-05-20T10:49:00;3.63;;;3.33;;
19364;SDS011;9818;48.382;10.850;2023-05-20T10:51:30;4.03;;;3.60;;
19364;SDS011;9818;48.382;10.850;2023-05-20T10:54:03;3.43;;;3.13;;
19364;SDS011;9818;48.382;10.850;2023-05-20T10:56:34;4.03;;;3.63;;
19364;SDS011;9818;48.382;10.850;2023-05-20T10:59:03;5.07;;;3.37;;
19364;SDS011;9818;48.382;10.850;2023-05-20T11:01:32;3.60;;;3.23;;
19364;SDS011;9818;48.382;10.850;2023-05-20T11:04:00;3.97;;;3.53;;
19364;SDS011;9818;48.382;10.850;2023-05-20T11:06:30;3.60;;;3.17;;
19364;SDS011;9818;48.382;10.850;2023-05-20T11:09:02;3.57;;;2.90;;
19364;SDS011;9818;48.382;10.850;2023-05-20T11:11:34;3.53;;;3.23;;
19364;SDS011;9818;48.382;10.850;2023-05-20T11:14:03;3.77;;;3.47;;
19364;SDS011;9818;48.382;10.850;2023-05-20T11:16:35;3.13;;;2.83;;
19364;SDS011;9818;48.382;10.850;2023-05-20T11:19:07;3.57;;;3.27;;
19364;SDS011;9818;48.382;10.850;2023-05-20T11:21:44;3.73;;;3.30;;
19364;SDS011;9818;48.382;10.850;2023-05-20T11:24:22;3.30;;;3.00;;
19364;SDS011;9818;48.382;10.850;2023-05-20T11:26:55;3.67;;;3.37;;
19364;SDS011;9818;48.382;10.850;2023-05-20T11:29:25;4.33;;;3.53;;
19364;SDS011;9818;48.382;10.850;2023-05-20T11:31:56;3.90;;;3.17;;
19364;SDS011;9818;48.382;10.850;2023-05-20T11:34:31;3.80;;;2.90;;
19364;SDS011;9818;48.382;10.850;2023-05-20T11:37:01;3.70;;;3.40;;
19364;SDS011;9818;48.382;10.850;2023-05-20T11:39:33;3.87;;;3.50;;
19364;SDS011;9818;48.382;10.850;2023-05-20T11:42:04;4.23;;;3.40;;
19364;SDS011;9818;48.382;10.850;2023-05-20T11:44:33;3.37;;;3.07;;
19364;SDS011;9818;48.382;10.850;2023-05-20T11:47:02;3.53;;;3.20;;
19364;SDS011;9818;48.382;10.850;2023-05-20T11:49:37;3.60;;;3.30;;
19364;SDS011;9818;48.382;10.850;2023-05-20T11:52:07;3.50;;;3.20;;
19364;SDS011;9818;48.382;10.850;2023-05-20T11:54:37;3.27;;;2.97;;
19364;SDS011;9818;48.382;10.850;2023-05-20T11:57:08;5.00;;;3.70;;
19364;SDS011;9818;48.382;10.850;2023-05-20T11:59:38;3.47;;;3.17;;
19364;SDS011;9818;48.382;10.850;2023-05-20T12:02:07;3.60;;;3.30;;
19364;SDS011;9818;48.382;10.850;2023-05-20T12:04:36;3.60;;;3.30;;
19364;SDS011;9818;48.382;10.850;2023-05-20T12:07:04;3.30;;;3.03;;
19364;SDS011;9818;48.382;10.850;2023-05-20T12:09:34;3.40;;;3.10;;
19364;SDS011;9818;48.382;10.850;2023-05-20T12:12:03;3.50;;;3.20;;
19364;SDS011;9818;48.382;10.850;2023-05-20T12:14:34;3.43;;;3.13;;
19364;SDS011;9818;48.382;10.850;2023-05-20T12:17:03;3.40;;;3.10;;
19364;SDS011;9818;48.382;10.850;2023-05-20T12:19:32;3.13;;;2.83;;
19364;SDS011;9818;48.382;10.850;2023-05-20T12:22:00;3.40;;;3.10;;
19364;SDS011;9818;48.382;10.850;2023-05-20T12:24:29;3.43;;;3.13;;
19364;SDS011;9818;48.382;10.850;2023-05-20T12:26:58;3.40;;;3.10;;
19364;SDS011;9818;48.382;10.850;2023-05-20T12:29:27;3.30;;;3.00;;
19364;SDS011;9818;48.382;10.850;2023-05-20T12:31:59;2.80;;;2.60;;
19364;SDS011;9818;48.382;10.850;2023-05-20T12:34:27;3.37;;;3.07;;
19364;SDS011;9818;48.382;10.850;2023-05-20T12:36:57;3.87;;;3.47;;
19364;SDS011;9818;48.382;10.850;2023-05-20T12:39:25;3.40;;;3.10;;
19364;SDS011;9818;48.382;10.850;2023-05-20T12:41:54;3.47;;;3.17;;
19364;SDS011;9818;48.382;10.850;2023-05-20T12:44:23;3.43;;;3.10;;
19364;SDS011;9818;48.382;10.850;2023-05-20T12:46:53;3.67;;;3.10;;
19364;SDS011;9818;48.382;10.850;2023-05-20T12:49:24;3.57;;;3.27;;
19364;SDS011;9818;48.382;10.850;2023-05-20T12:51:53;3.97;;;3.20;;
19364;SDS011;9818;48.382;10.850;2023-05-20T12:54:21;3.30;;;3.00;;
19364;SDS011;9818;48.382;10.850;2023-05-20T12:56:52;3.37;;;3.03;;
19364;SDS011;9818;48.382;10.850;2023-05-20T12:59:21;3.50;;;3.20;;
19364;SDS011;9818;48.382;10.850;2023-05-20T13:01:49;2.97;;;2.73;;
19364;SDS011;9818;48.382;10.850;2023-05-20T13:04:18;3.30;;;3.00;;
19364;SDS011;9818;48.382;10.850;2023-05-20T13:06:49;4.20;;;3.03;;
19364;SDS011;9818;48.382;10.850;2023-05-20T13:09:18;3.10;;;2.80;;
19364;SDS011;9818;48.382;10.850;2023-05-20T13:11:46;3.27;;;2.90;;
19364;SDS011;9818;48.382;10.850;2023-05-20T13:14:15;3.57;;;3.27;;
19364;SDS011;9818;48.382;10.850;2023-05-20T13:16:44;3.33;;;3.03;;
19364;SDS011;9818;48.382;10.850;2023-05-20T13:19:12;3.63;;;3.33;;
19364;SDS011;9818;48.382;10.850;2023-05-20T13:21:41;4.47;;;3.43;;
19364;SDS011;9818;48.382;10.850;2023-05-20T13:24:12;3.77;;;3.43;;
19364;SDS011;9818;48.382;10.850;2023-05-20T13:26:41;7.37;;;4.60;;
19364;SDS011;9818;48.382;10.850;2023-05-20T13:29:09;5.23;;;4.23;;
19364;SDS011;9818;48.382;10.850;2023-05-20T13:31:38;8.10;;;4.90;;
19364;SDS011;9818;48.382;10.850;2023-05-20T13:34:07;8.10;;;5.43;;
19364;SDS011;9818;48.382;10.850;2023-05-20T13:36:36;8.57;;;5.63;;
19364;SDS011;9818;48.382;10.850;2023-05-20T13:39:05;7.77;;;5.20;;
19364;SDS011;9818;48.382;10.850;2023-05-20T13:41:36;10.60;;;6.23;;
19364;SDS011;9818;48.382;10.850;2023-05-20T13:44:04;8.40;;;5.47;;
19364;SDS011;9818;48.382;10.850;2023-05-20T13:46:33;14.17;;;7.10;;
19364;SDS011;9818;48.382;10.850;2023-05-20T13:49:02;14.53;;;7.03;;
19364;SDS011;9818;48.382;10.850;2023-05-20T13:51:31;13.73;;;7.63;;
19364;SDS011;9818;48.382;10.850;2023-05-20T13:53:59;13.47;;;6.17;;
19364;SDS011;9818;48.382;10.850;2023-05-20T13:56:28;10.43;;;6.30;;
19364;SDS011;9818;48.382;10.850;2023-05-20T13:58:59;10.60;;;6.93;;
19364;SDS011;9818;48.382;10.850;2023-05-20T14:01:28;11.67;;;6.90;;
19364;SDS011;9818;48.382;10.850;2023-05-20T14:03:57;11.13;;;6.00;;
19364;SDS011;9818;48.382;10.850;2023-05-20T14:06:26;9.70;;;6.53;;
19364;SDS011;9818;48.382;10.850;2023-05-20T14:08:56;11.50;;;6.37;;
19364;SDS011;9818;48.382;10.850;2023-05-20T14:11:24;8.50;;;5.90;;
19364;SDS011;9818;48.382;10.850;2023-05-20T14:13:53;7.83;;;5.80;;
19364;SDS011;9818;48.382;10.850;2023-05-20T14:16:24;8.27;;;5.90;;
19364;SDS011;9818;48.382;10.850;2023-05-20T14:18:53;9.40;;;5.90;;
19364;SDS011;9818;48.382;10.850;2023-05-20T14:21:21;11.70;;;6.50;;
19364;SDS011;9818;48.382;10.850;2023-05-20T14:23:50;9.50;;;5.57;;
19364;SDS011;9818;48.382;10.850;2023-05-20T14:26:19;10.60;;;5.60;;
19364;SDS011;9818;48.382;10.850;2023-05-20T14:28:47;9.97;;;5.80;;
19364;SDS011;9818;48.382;10.850;2023-05-20T14:31:16;9.47;;;5.50;;
19364;SDS011;9818;48.382;10.850;2023-05-20T14:33:49;11.50;;;5.70;;
19364;SDS011;9818;48.382;10.850;2023-05-20T14:36:18;12.03;;;6.23;;
19364;SDS011;9818;48.382;10.850;2023-05-20T14:38:46;8.90;;;5.53;;
19364;SDS011;9818;48.382;10.850;2023-05-20T14:41:15;9.33;;;5.87;;
19364;SDS011;9818;48.382;10.850;2023-05-20T14:43:44;9.30;;;5.60;;
19364;SDS011;9818;48.382;10.850;2023-05-20T14:46:12;7.90;;;5.70;;
19364;SDS011;9818;48.382;10.850;2023-05-20T14:48:41;11.43;;;6.40;;
19364;SDS011;9818;48.382;10.850;2023-05-20T14:51:13;8.57;;;6.10;;
19364;SDS011;9818;48.382;10.850;2023-05-20T14:53:41;8.17;;;5.80;;
19364;SDS011;9818;48.382;10.850;2023-05-20T14:56:10;7.10;;;5.93;;
19364;SDS011;9818;48.382;10.850;2023-05-20T14:58:40;7.90;;;5.43;;
19364;SDS011;9818;48.382;10.850;2023-05-20T15:01:09;10.73;;;6.20;;
19364;SDS011;9818;48.382;10.850;2023-05-20T15:03:38;7.23;;;5.07;;